Terminal Aerodrome Forecast
Issued by NWS

Home | Current Version | Previous Version | Text Only | Print | Product List | Glossary On
Versions: 1 2 3 4 5 6 7 8 9 10 11 12 13 14 15 16 17 18 19 20 21 22 23 24
003
FTUS46 KSGX 130641 AAA
TAFSAN
TAF AMD
KSAN 130641Z 1307/1412 VRB03KT 6SM BR VCFG FEW003
      TEMPO 1307/1311 1/4SM FG VV002
     FM131100 VRB03KT 3SM BR VCFG FEW005
     FM131400 VRB04KT P6SM SCT250
     FM132200 29010KT P6SM SCT250
     FM140100 VRB04KT P6SM VCFG FEW006
     FM140800 VRB03KT P6SM FEW250=

USA.gov is the U.S. government's official web portal to all federal, state and local government web resources and services.